sensor_id;sensor_type;location;lat;lon;timestamp;temperature;humidity
64062;DHT22;50308;47.438;-1.528;2022-10-30T00:01:22;18.60;80.30
64062;DHT22;50308;47.438;-1.528;2022-10-30T00:03:48;18.60;80.30
64062;DHT22;50308;47.438;-1.528;2022-10-30T00:06:13;18.50;80.40
64062;DHT22;50308;47.438;-1.528;2022-10-30T00:08:39;18.50;80.40
64062;DHT22;50308;47.438;-1.528;2022-10-30T00:11:06;18.50;80.40
64062;DHT22;50308;47.438;-1.528;2022-10-30T00:13:31;18.50;80.30
64062;DHT22;50308;47.438;-1.528;2022-10-30T00:15:57;18.50;80.30
64062;DHT22;50308;47.438;-1.528;2022-10-30T00:18:23;18.50;80.30
64062;DHT22;50308;47.438;-1.528;2022-10-30T00:20:48;18.50;80.40
64062;DHT22;50308;47.438;-1.528;2022-10-30T00:23:14;18.50;80.30
64062;DHT22;50308;47.438;-1.528;2022-10-30T00:25:39;18.50;80.30
64062;DHT22;50308;47.438;-1.528;2022-10-30T00:28:05;18.50;80.30
64062;DHT22;50308;47.438;-1.528;2022-10-30T00:30:31;18.50;80.50
64062;DHT22;50308;47.438;-1.528;2022-10-30T00:32:57;18.50;80.50
64062;DHT22;50308;47.438;-1.528;2022-10-30T00:35:23;18.50;80.40
64062;DHT22;50308;47.438;-1.528;2022-10-30T00:37:48;18.50;80.60
64062;DHT22;50308;47.438;-1.528;2022-10-30T00:40:14;18.40;80.50
64062;DHT22;50308;47.438;-1.528;2022-10-30T00:42:40;18.40;80.50
64062;DHT22;50308;47.438;-1.528;2022-10-30T00:45:06;18.50;80.40
64062;DHT22;50308;47.438;-1.528;2022-10-30T00:47:37;18.50;80.60
64062;DHT22;50308;47.438;-1.528;2022-10-30T00:52:30;18.50;80.70
64062;DHT22;50308;47.438;-1.528;2022-10-30T00:54:56;18.50;80.50
64062;DHT22;50308;47.438;-1.528;2022-10-30T00:57:23;18.50;80.50
64062;DHT22;50308;47.438;-1.528;2022-10-30T00:59:50;18.50;80.40
64062;DHT22;50308;47.438;-1.528;2022-10-30T01:02:15;18.50;80.60
64062;DHT22;50308;47.438;-1.528;2022-10-30T01:04:41;18.50;80.60
64062;DHT22;50308;47.438;-1.528;2022-10-30T01:07:08;18.50;80.60
64062;DHT22;50308;47.438;-1.528;2022-10-30T01:09:35;18.40;80.80
64062;DHT22;50308;47.438;-1.528;2022-10-30T01:12:01;18.50;80.90
64062;DHT22;50308;47.438;-1.528;2022-10-30T01:14:27;18.50;80.80
64062;DHT22;50308;47.438;-1.528;2022-10-30T01:26:50;18.50;80.90
64062;DHT22;50308;47.438;-1.528;2022-10-30T01:29:23;18.50;80.90
64062;DHT22;50308;47.438;-1.528;2022-10-30T01:32:05;18.50;80.80
64062;DHT22;50308;47.438;-1.528;2022-10-30T01:35:17;18.50;80.80
64062;DHT22;50308;47.438;-1.528;2022-10-30T01:37:37;18.50;80.90
64062;DHT22;50308;47.438;-1.528;2022-10-30T01:40:12;18.50;81.10
64062;DHT22;50308;47.438;-1.528;2022-10-30T01:45:07;18.40;80.80
64062;DHT22;50308;47.438;-1.528;2022-10-30T01:52:54;18.50;80.90
64062;DHT22;50308;47.438;-1.528;2022-10-30T02:00:38;18.50;80.90
64062;DHT22;50308;47.438;-1.528;2022-10-30T02:03:04;18.50;81.10
64062;DHT22;50308;47.438;-1.528;2022-10-30T02:05:37;18.50;81.20
64062;DHT22;50308;47.438;-1.528;2022-10-30T02:08:05;18.40;81.00
64062;DHT22;50308;47.438;-1.528;2022-10-30T02:10:31;18.50;81.10
64062;DHT22;50308;47.438;-1.528;2022-10-30T02:12:58;18.50;81.10
64062;DHT22;50308;47.438;-1.528;2022-10-30T02:15:23;18.50;81.00
64062;DHT22;50308;47.438;-1.528;2022-10-30T02:17:49;18.50;81.00
64062;DHT22;50308;47.438;-1.528;2022-10-30T02:20:18;18.50;81.10
64062;DHT22;50308;47.438;-1.528;2022-10-30T02:22:45;18.40;81.20
64062;DHT22;50308;47.438;-1.528;2022-10-30T02:25:11;18.50;81.20
64062;DHT22;50308;47.438;-1.528;2022-10-30T02:27:37;18.40;81.40
64062;DHT22;50308;47.438;-1.528;2022-10-30T02:30:02;18.40;81.30
64062;DHT22;50308;47.438;-1.528;2022-10-30T02:32:28;18.40;81.40
64062;DHT22;50308;47.438;-1.528;2022-10-30T02:34:54;18.40;81.20
64062;DHT22;50308;47.438;-1.528;2022-10-30T02:37:19;18.40;81.10
64062;DHT22;50308;47.438;-1.528;2022-10-30T02:39:45;18.40;81.20
64062;DHT22;50308;47.438;-1.528;2022-10-30T02:42:11;18.40;81.10
64062;DHT22;50308;47.438;-1.528;2022-10-30T02:44:37;18.40;81.00
64062;DHT22;50308;47.438;-1.528;2022-10-30T02:47:02;18.40;81.10
64062;DHT22;50308;47.438;-1.528;2022-10-30T02:49:29;18.40;81.10
64062;DHT22;50308;47.438;-1.528;2022-10-30T02:51:58;18.40;81.20
64062;DHT22;50308;47.438;-1.528;2022-10-30T02:54:24;18.40;81.40
64062;DHT22;50308;47.438;-1.528;2022-10-30T02:56:50;18.40;81.30
64062;DHT22;50308;47.438;-1.528;2022-10-30T02:59:16;18.40;81.30
64062;DHT22;50308;47.438;-1.528;2022-10-30T03:01:42;18.40;81.40
64062;DHT22;50308;47.438;-1.528;2022-10-30T03:04:11;18.50;81.50
64062;DHT22;50308;47.438;-1.528;2022-10-30T03:06:40;18.40;81.40
64062;DHT22;50308;47.438;-1.528;2022-10-30T03:09:06;18.40;81.50
64062;DHT22;50308;47.438;-1.528;2022-10-30T03:11:32;18.30;81.60
64062;DHT22;50308;47.438;-1.528;2022-10-30T03:13:58;18.30;81.90
64062;DHT22;50308;47.438;-1.528;2022-10-30T03:16:24;18.30;81.80
64062;DHT22;50308;47.438;-1.528;2022-10-30T03:18:51;18.40;81.80
64062;DHT22;50308;47.438;-1.528;2022-10-30T03:21:18;18.30;81.90
64062;DHT22;50308;47.438;-1.528;2022-10-30T03:23:44;18.30;82.00
64062;DHT22;50308;47.438;-1.528;2022-10-30T03:26:10;18.30;82.00
64062;DHT22;50308;47.438;-1.528;2022-10-30T03:28:36;18.30;81.80
64062;DHT22;50308;47.438;-1.528;2022-10-30T03:31:06;18.30;81.50
64062;DHT22;50308;47.438;-1.528;2022-10-30T03:33:32;18.40;81.50
64062;DHT22;50308;47.438;-1.528;2022-10-30T03:35:58;18.40;81.20
64062;DHT22;50308;47.438;-1.528;2022-10-30T03:38:28;18.40;81.10
64062;DHT22;50308;47.438;-1.528;2022-10-30T03:40:53;18.40;81.00
64062;DHT22;50308;47.438;-1.528;2022-10-30T03:43:19;18.40;80.90
64062;DHT22;50308;47.438;-1.528;2022-10-30T03:45:49;18.40;80.70
64062;DHT22;50308;47.438;-1.528;2022-10-30T03:48:16;18.40;80.70
64062;DHT22;50308;47.438;-1.528;2022-10-30T03:50:41;18.40;80.70
64062;DHT22;50308;47.438;-1.528;2022-10-30T03:53:07;18.40;81.00
64062;DHT22;50308;47.438;-1.528;2022-10-30T03:55:33;18.40;80.90
64062;DHT22;50308;47.438;-1.528;2022-10-30T03:57:58;18.40;81.00
64062;DHT22;50308;47.438;-1.528;2022-10-30T04:00:24;18.40;81.00
64062;DHT22;50308;47.438;-1.528;2022-10-30T04:02:50;18.40;81.10
64062;DHT22;50308;47.438;-1.528;2022-10-30T04:05:18;18.40;81.00
64062;DHT22;50308;47.438;-1.528;2022-10-30T04:07:44;18.40;81.00
64062;DHT22;50308;47.438;-1.528;2022-10-30T04:10:10;18.30;81.20
64062;DHT22;50308;47.438;-1.528;2022-10-30T04:12:49;18.30;81.40
64062;DHT22;50308;47.438;-1.528;2022-10-30T04:15:19;18.30;81.40
64062;DHT22;50308;47.438;-1.528;2022-10-30T04:17:51;18.30;81.60
64062;DHT22;50308;47.438;-1.528;2022-10-30T04:20:18;18.30;81.40
64062;DHT22;50308;47.438;-1.528;2022-10-30T04:22:44;18.30;81.60
64062;DHT22;50308;47.438;-1.528;2022-10-30T04:25:11;18.30;81.50
64062;DHT22;50308;47.438;-1.528;2022-10-30T04:27:41;18.20;81.20
64062;DHT22;50308;47.438;-1.528;2022-10-30T04:30:07;18.20;81.30
64062;DHT22;50308;47.438;-1.528;2022-10-30T04:32:33;18.10;81.30
64062;DHT22;50308;47.438;-1.528;2022-10-30T04:34:59;18.10;81.20
64062;DHT22;50308;47.438;-1.528;2022-10-30T04:37:24;18.20;81.20
64062;DHT22;50308;47.438;-1.528;2022-10-30T04:39:50;18.10;80.80
64062;DHT22;50308;47.438;-1.528;2022-10-30T04:42:16;18.10;81.00
64062;DHT22;50308;47.438;-1.528;2022-10-30T04:44:41;18.00;80.90
64062;DHT22;50308;47.438;-1.528;2022-10-30T04:47:07;18.10;80.80
64062;DHT22;50308;47.438;-1.528;2022-10-30T04:49:33;18.00;80.70
64062;DHT22;50308;47.438;-1.528;2022-10-30T04:51:58;18.00;80.40
64062;DHT22;50308;47.438;-1.528;2022-10-30T04:54:24;17.90;80.50
64062;DHT22;50308;47.438;-1.528;2022-10-30T04:56:50;17.90;80.50
64062;DHT22;50308;47.438;-1.528;2022-10-30T04:59:15;17.80;80.80
64062;DHT22;50308;47.438;-1.528;2022-10-30T05:01:41;17.80;80.70
64062;DHT22;50308;47.438;-1.528;2022-10-30T05:04:07;17.80;80.70
64062;DHT22;50308;47.438;-1.528;2022-10-30T05:06:33;17.70;80.80
64062;DHT22;50308;47.438;-1.528;2022-10-30T05:08:59;17.70;80.90
64062;DHT22;50308;47.438;-1.528;2022-10-30T05:11:25;17.70;81.10
64062;DHT22;50308;47.438;-1.528;2022-10-30T05:13:51;17.70;80.90
64062;DHT22;50308;47.438;-1.528;2022-10-30T05:16:38;17.70;81.20
64062;DHT22;50308;47.438;-1.528;2022-10-30T05:19:05;17.70;81.20
64062;DHT22;50308;47.438;-1.528;2022-10-30T05:21:30;17.70;81.00
64062;DHT22;50308;47.438;-1.528;2022-10-30T05:23:56;17.70;80.70
64062;DHT22;50308;47.438;-1.528;2022-10-30T05:26:22;17.70;80.70
64062;DHT22;50308;47.438;-1.528;2022-10-30T05:28:48;17.70;80.40
64062;DHT22;50308;47.438;-1.528;2022-10-30T05:31:14;17.70;80.40
64062;DHT22;50308;47.438;-1.528;2022-10-30T05:33:39;17.70;80.90
64062;DHT22;50308;47.438;-1.528;2022-10-30T05:36:05;17.70;80.80
64062;DHT22;50308;47.438;-1.528;2022-10-30T05:38:31;17.70;80.80
64062;DHT22;50308;47.438;-1.528;2022-10-30T05:40:56;17.60;80.60
64062;DHT22;50308;47.438;-1.528;2022-10-30T05:43:22;17.70;80.70
64062;DHT22;50308;47.438;-1.528;2022-10-30T05:45:48;17.70;80.80
64062;DHT22;50308;47.438;-1.528;2022-10-30T05:48:14;17.70;80.80
64062;DHT22;50308;47.438;-1.528;2022-10-30T05:50:40;17.70;81.20
64062;DHT22;50308;47.438;-1.528;2022-10-30T05:53:05;17.70;81.00
64062;DHT22;50308;47.438;-1.528;2022-10-30T05:55:31;17.70;81.00
64062;DHT22;50308;47.438;-1.528;2022-10-30T05:58:01;17.70;81.00
64062;DHT22;50308;47.438;-1.528;2022-10-30T06:00:30;17.70;80.90
64062;DHT22;50308;47.438;-1.528;2022-10-30T06:02:59;17.70;80.90
64062;DHT22;50308;47.438;-1.528;2022-10-30T06:05:25;17.60;80.80
64062;DHT22;50308;47.438;-1.528;2022-10-30T06:07:55;17.70;80.80
64062;DHT22;50308;47.438;-1.528;2022-10-30T06:10:21;17.70;81.00
64062;DHT22;50308;47.438;-1.528;2022-10-30T06:13:00;17.70;80.90
64062;DHT22;50308;47.438;-1.528;2022-10-30T06:15:26;17.60;80.90
64062;DHT22;50308;47.438;-1.528;2022-10-30T06:17:52;17.70;80.90
64062;DHT22;50308;47.438;-1.528;2022-10-30T06:20:19;17.70;81.20
64062;DHT22;50308;47.438;-1.528;2022-10-30T06:22:54;17.70;80.80
64062;DHT22;50308;47.438;-1.528;2022-10-30T06:25:20;17.70;81.00
64062;DHT22;50308;47.438;-1.528;2022-10-30T06:27:46;17.70;80.80
64062;DHT22;50308;47.438;-1.528;2022-10-30T06:30:12;17.60;80.90
64062;DHT22;50308;47.438;-1.528;2022-10-30T06:32:38;17.60;80.90
64062;DHT22;50308;47.438;-1.528;2022-10-30T06:35:03;17.60;80.60
64062;DHT22;50308;47.438;-1.528;2022-10-30T06:37:29;17.60;80.80
64062;DHT22;50308;47.438;-1.528;2022-10-30T06:39:55;17.60;80.90
64062;DHT22;50308;47.438;-1.528;2022-10-30T06:42:20;17.60;80.70
64062;DHT22;50308;47.438;-1.528;2022-10-30T06:44:46;17.50;81.10
64062;DHT22;50308;47.438;-1.528;2022-10-30T06:47:13;17.50;82.00
64062;DHT22;50308;47.438;-1.528;2022-10-30T06:49:39;17.50;81.10
64062;DHT22;50308;47.438;-1.528;2022-10-30T06:52:04;17.60;81.00
64062;DHT22;50308;47.438;-1.528;2022-10-30T06:54:30;17.60;81.10
64062;DHT22;50308;47.438;-1.528;2022-10-30T06:56:56;17.60;81.10
64062;DHT22;50308;47.438;-1.528;2022-10-30T06:59:21;17.70;81.20
64062;DHT22;50308;47.438;-1.528;2022-10-30T07:01:47;17.80;80.90
64062;DHT22;50308;47.438;-1.528;2022-10-30T07:04:13;17.70;80.80
64062;DHT22;50308;47.438;-1.528;2022-10-30T07:06:38;17.70;80.80
64062;DHT22;50308;47.438;-1.528;2022-10-30T07:09:04;17.60;80.80
64062;DHT22;50308;47.438;-1.528;2022-10-30T07:11:30;17.60;81.00
64062;DHT22;50308;47.438;-1.528;2022-10-30T07:13:55;17.60;81.20
64062;DHT22;50308;47.438;-1.528;2022-10-30T07:16:21;17.60;81.00
64062;DHT22;50308;47.438;-1.528;2022-10-30T07:18:46;17.60;81.10
64062;DHT22;50308;47.438;-1.528;2022-10-30T07:21:12;17.70;81.00
64062;DHT22;50308;47.438;-1.528;2022-10-30T07:23:38;17.70;81.10
64062;DHT22;50308;47.438;-1.528;2022-10-30T07:26:03;17.70;80.90
64062;DHT22;50308;47.438;-1.528;2022-10-30T07:28:29;17.80;80.60
64062;DHT22;50308;47.438;-1.528;2022-10-30T07:30:57;17.80;80.40
64062;DHT22;50308;47.438;-1.528;2022-10-30T07:33:22;17.80;80.50
64062;DHT22;50308;47.438;-1.528;2022-10-30T07:35:48;17.80;80.40
64062;DHT22;50308;47.438;-1.528;2022-10-30T07:38:14;17.80;80.40
64062;DHT22;50308;47.438;-1.528;2022-10-30T07:40:42;17.80;80.60
64062;DHT22;50308;47.438;-1.528;2022-10-30T07:43:07;17.80;80.50
64062;DHT22;50308;47.438;-1.528;2022-10-30T07:45:37;17.80;80.60
64062;DHT22;50308;47.438;-1.528;2022-10-30T07:48:04;17.70;80.80
64062;DHT22;50308;47.438;-1.528;2022-10-30T07:50:30;17.70;80.80
64062;DHT22;50308;47.438;-1.528;2022-10-30T07:52:55;17.80;80.50
64062;DHT22;50308;47.438;-1.528;2022-10-30T07:55:21;17.80;80.50
64062;DHT22;50308;47.438;-1.528;2022-10-30T07:57:47;17.80;80.60
64062;DHT22;50308;47.438;-1.528;2022-10-30T08:00:13;17.70;80.60
64062;DHT22;50308;47.438;-1.528;2022-10-30T08:02:39;17.70;81.10
64062;DHT22;50308;47.438;-1.528;2022-10-30T08:05:04;17.70;81.20
64062;DHT22;50308;47.438;-1.528;2022-10-30T08:07:31;17.60;81.30
64062;DHT22;50308;47.438;-1.528;2022-10-30T08:09:57;17.70;81.50
64062;DHT22;50308;47.438;-1.528;2022-10-30T08:12:23;17.70;81.30
64062;DHT22;50308;47.438;-1.528;2022-10-30T08:14:48;17.70;81.20
64062;DHT22;50308;47.438;-1.528;2022-10-30T08:17:14;17.70;81.50
64062;DHT22;50308;47.438;-1.528;2022-10-30T08:19:39;17.70;81.40
64062;DHT22;50308;47.438;-1.528;2022-10-30T08:22:05;17.70;81.50
64062;DHT22;50308;47.438;-1.528;2022-10-30T08:24:31;17.80;81.40
64062;DHT22;50308;47.438;-1.528;2022-10-30T08:26:56;17.80;81.40
64062;DHT22;50308;47.438;-1.528;2022-10-30T08:29:22;17.80;81.60
64062;DHT22;50308;47.438;-1.528;2022-10-30T08:31:48;17.80;81.30
64062;DHT22;50308;47.438;-1.528;2022-10-30T08:34:14;17.80;82.50
64062;DHT22;50308;47.438;-1.528;2022-10-30T08:36:39;17.80;81.40
64062;DHT22;50308;47.438;-1.528;2022-10-30T08:39:05;17.80;81.40
64062;DHT22;50308;47.438;-1.528;2022-10-30T08:41:31;17.80;81.60
64062;DHT22;50308;47.438;-1.528;2022-10-30T08:43:57;17.80;81.60
64062;DHT22;50308;47.438;-1.528;2022-10-30T08:46:23;17.80;81.70
64062;DHT22;50308;47.438;-1.528;2022-10-30T08:48:48;17.80;81.80
64062;DHT22;50308;47.438;-1.528;2022-10-30T08:51:14;17.70;82.10
64062;DHT22;50308;47.438;-1.528;2022-10-30T08:53:40;17.80;81.90
64062;DHT22;50308;47.438;-1.528;2022-10-30T08:56:06;17.90;81.50
64062;DHT22;50308;47.438;-1.528;2022-10-30T08:58:31;18.00;81.50
64062;DHT22;50308;47.438;-1.528;2022-10-30T09:00:58;18.00;81.50
64062;DHT22;50308;47.438;-1.528;2022-10-30T09:03:23;18.00;81.60
64062;DHT22;50308;47.438;-1.528;2022-10-30T09:05:49;17.90;81.80
64062;DHT22;50308;47.438;-1.528;2022-10-30T09:08:14;18.00;81.80
64062;DHT22;50308;47.438;-1.528;2022-10-30T09:10:40;18.00;81.80
64062;DHT22;50308;47.438;-1.528;2022-10-30T09:13:06;17.90;82.10
64062;DHT22;50308;47.438;-1.528;2022-10-30T09:15:31;17.90;82.10
64062;DHT22;50308;47.438;-1.528;2022-10-30T09:18:01;18.00;81.70
64062;DHT22;50308;47.438;-1.528;2022-10-30T09:20:27;18.00;81.80
64062;DHT22;50308;47.438;-1.528;2022-10-30T09:22:53;18.00;81.60
64062;DHT22;50308;47.438;-1.528;2022-10-30T09:25:19;18.00;82.00
64062;DHT22;50308;47.438;-1.528;2022-10-30T09:27:44;18.00;81.20
64062;DHT22;50308;47.438;-1.528;2022-10-30T09:30:10;18.00;81.40
64062;DHT22;50308;47.438;-1.528;2022-10-30T09:32:36;18.00;81.00
64062;DHT22;50308;47.438;-1.528;2022-10-30T09:35:01;18.00;81.60
64062;DHT22;50308;47.438;-1.528;2022-10-30T09:37:27;18.00;81.70
64062;DHT22;50308;47.438;-1.528;2022-10-30T09:39:53;18.00;81.40
64062;DHT22;50308;47.438;-1.528;2022-10-30T09:47:44;18.00;81.30
64062;DHT22;50308;47.438;-1.528;2022-10-30T09:55:41;18.10;80.70
64062;DHT22;50308;47.438;-1.528;2022-10-30T10:00:45;18.10;81.40
64062;DHT22;50308;47.438;-1.528;2022-10-30T10:05:42;18.10;80.00
64062;DHT22;50308;47.438;-1.528;2022-10-30T10:08:10;18.10;81.00
64062;DHT22;50308;47.438;-1.528;2022-10-30T10:10:39;18.20;81.50
64062;DHT22;50308;47.438;-1.528;2022-10-30T10:13:09;18.20;81.60
64062;DHT22;50308;47.438;-1.528;2022-10-30T10:18:17;18.10;81.70
64062;DHT22;50308;47.438;-1.528;2022-10-30T10:20:46;18.10;81.80
64062;DHT22;50308;47.438;-1.528;2022-10-30T10:23:16;18.20;81.70
64062;DHT22;50308;47.438;-1.528;2022-10-30T10:25:43;18.10;81.70
64062;DHT22;50308;47.438;-1.528;2022-10-30T10:36:21;18.10;81.80
64062;DHT22;50308;47.438;-1.528;2022-10-30T10:38:55;18.10;82.20
64062;DHT22;50308;47.438;-1.528;2022-10-30T10:41:38;18.10;82.30
64062;DHT22;50308;47.438;-1.528;2022-10-30T10:49:20;18.00;82.90
64062;DHT22;50308;47.438;-1.528;2022-10-30T10:51:49;18.00;82.80
64062;DHT22;50308;47.438;-1.528;2022-10-30T10:54:18;18.10;82.80
64062;DHT22;50308;47.438;-1.528;2022-10-30T10:56:46;18.10;82.60
64062;DHT22;50308;47.438;-1.528;2022-10-30T11:01:40;18.10;82.50
64062;DHT22;50308;47.438;-1.528;2022-10-30T11:04:13;18.10;82.60
64062;DHT22;50308;47.438;-1.528;2022-10-30T11:06:41;18.20;82.80
64062;DHT22;50308;47.438;-1.528;2022-10-30T11:11:34;18.20;82.80
64062;DHT22;50308;47.438;-1.528;2022-10-30T11:13:59;18.20;82.90
64062;DHT22;50308;47.438;-1.528;2022-10-30T11:16:37;18.20;83.10
64062;DHT22;50308;47.438;-1.528;2022-10-30T11:19:06;18.20;83.00
64062;DHT22;50308;47.438;-1.528;2022-10-30T11:21:34;18.20;82.50
64062;DHT22;50308;47.438;-1.528;2022-10-30T11:24:02;18.30;82.60
64062;DHT22;50308;47.438;-1.528;2022-10-30T11:26:29;18.30;82.50
64062;DHT22;50308;47.438;-1.528;2022-10-30T11:29:11;18.30;82.70
64062;DHT22;50308;47.438;-1.528;2022-10-30T11:31:39;18.30;82.80
64062;DHT22;50308;47.438;-1.528;2022-10-30T11:36:46;18.30;82.80
64062;DHT22;50308;47.438;-1.528;2022-10-30T11:41:41;18.30;82.80
64062;DHT22;50308;47.438;-1.528;2022-10-30T11:44:07;18.40;83.00
64062;DHT22;50308;47.438;-1.528;2022-10-30T11:46:33;18.40;83.30
64062;DHT22;50308;47.438;-1.528;2022-10-30T11:49:00;18.40;82.70
64062;DHT22;50308;47.438;-1.528;2022-10-30T11:51:33;18.40;82.80
64062;DHT22;50308;47.438;-1.528;2022-10-30T11:53:59;18.40;82.50
64062;DHT22;50308;47.438;-1.528;2022-10-30T11:56:25;18.40;82.60
64062;DHT22;50308;47.438;-1.528;2022-10-30T11:58:53;18.40;82.60
64062;DHT22;50308;47.438;-1.528;2022-10-30T12:01:23;18.50;83.20
64062;DHT22;50308;47.438;-1.528;2022-10-30T12:03:49;18.40;82.50
64062;DHT22;50308;47.438;-1.528;2022-10-30T12:11:32;18.50;82.50
64062;DHT22;50308;47.438;-1.528;2022-10-30T12:13:58;18.50;82.60
64062;DHT22;50308;47.438;-1.528;2022-10-30T12:16:24;18.50;82.20
64062;DHT22;50308;47.438;-1.528;2022-10-30T12:18:51;18.50;82.90
64062;DHT22;50308;47.438;-1.528;2022-10-30T12:21:18;18.50;81.60
64062;DHT22;50308;47.438;-1.528;2022-10-30T12:23:49;18.50;82.20
64062;DHT22;50308;47.438;-1.528;2022-10-30T12:26:15;18.50;81.30
64062;DHT22;50308;47.438;-1.528;2022-10-30T12:28:41;18.60;81.30
64062;DHT22;50308;47.438;-1.528;2022-10-30T12:31:16;18.60;80.90
64062;DHT22;50308;47.438;-1.528;2022-10-30T12:33:44;18.60;81.50
64062;DHT22;50308;47.438;-1.528;2022-10-30T12:36:17;18.60;81.20
64062;DHT22;50308;47.438;-1.528;2022-10-30T12:43:42;18.60;81.20
64062;DHT22;50308;47.438;-1.528;2022-10-30T12:48:36;18.60;80.50
64062;DHT22;50308;47.438;-1.528;2022-10-30T12:51:20;18.60;80.50
64062;DHT22;50308;47.438;-1.528;2022-10-30T12:56:24;18.60;80.70
64062;DHT22;50308;47.438;-1.528;2022-10-30T12:58:52;18.60;80.30
64062;DHT22;50308;47.438;-1.528;2022-10-30T13:06:54;18.60;80.30
64062;DHT22;50308;47.438;-1.528;2022-10-30T13:12:11;18.70;80.70
64062;DHT22;50308;47.438;-1.528;2022-10-30T13:17:05;18.70;80.40
64062;DHT22;50308;47.438;-1.528;2022-10-30T13:19:34;18.70;80.40
64062;DHT22;50308;47.438;-1.528;2022-10-30T13:22:07;18.70;80.40
64062;DHT22;50308;47.438;-1.528;2022-10-30T13:27:24;18.70;80.40
64062;DHT22;50308;47.438;-1.528;2022-10-30T13:30:02;18.70;80.40
64062;DHT22;50308;47.438;-1.528;2022-10-30T13:35:00;18.70;80.40
64062;DHT22;50308;47.438;-1.528;2022-10-30T13:37:33;18.70;80.40
64062;DHT22;50308;47.438;-1.528;2022-10-30T13:40:09;18.70;80.40
64062;DHT22;50308;47.438;-1.528;2022-10-30T13:52:25;18.70;80.40
64062;DHT22;50308;47.438;-1.528;2022-10-30T13:57:57;18.70;80.40
64062;DHT22;50308;47.438;-1.528;2022-10-30T14:06:09;18.80;80.40
64062;DHT22;50308;47.438;-1.528;2022-10-30T14:11:03;18.80;80.40
64062;DHT22;50308;47.438;-1.528;2022-10-30T14:16:30;18.80;80.40
64062;DHT22;50308;47.438;-1.528;2022-10-30T14:19:03;18.80;80.40
64062;DHT22;50308;47.438;-1.528;2022-10-30T14:21:30;18.80;80.40
64062;DHT22;50308;47.438;-1.528;2022-10-30T14:24:03;18.80;80.40
64062;DHT22;50308;47.438;-1.528;2022-10-30T14:26:29;18.80;80.40
64062;DHT22;50308;47.438;-1.528;2022-10-30T14:28:55;18.70;80.40
64062;DHT22;50308;47.438;-1.528;2022-10-30T14:31:39;18.80;80.40
64062;DHT22;50308;47.438;-1.528;2022-10-30T14:34:24;18.80;80.40
64062;DHT22;50308;47.438;-1.528;2022-10-30T14:36:50;18.80;80.10
64062;DHT22;50308;47.438;-1.528;2022-10-30T14:41:57;18.80;80.20
64062;DHT22;50308;47.438;-1.528;2022-10-30T14:54:53;18.80;79.90
64062;DHT22;50308;47.438;-1.528;2022-10-30T14:57:41;18.80;80.10
64062;DHT22;50308;47.438;-1.528;2022-10-30T15:00:27;18.80;80.40
64062;DHT22;50308;47.438;-1.528;2022-10-30T15:02:57;18.80;80.20
64062;DHT22;50308;47.438;-1.528;2022-10-30T15:10:30;18.90;80.00
64062;DHT22;50308;47.438;-1.528;2022-10-30T15:15:28;18.80;79.70
64062;DHT22;50308;47.438;-1.528;2022-10-30T15:17:55;18.90;80.00
64062;DHT22;50308;47.438;-1.528;2022-10-30T15:20:22;18.90;79.80
64062;DHT22;50308;47.438;-1.528;2022-10-30T15:22:49;18.90;79.80
64062;DHT22;50308;47.438;-1.528;2022-10-30T15:25:20;18.90;79.60
64062;DHT22;50308;47.438;-1.528;2022-10-30T15:27:46;18.90;79.20
64062;DHT22;50308;47.438;-1.528;2022-10-30T15:30:15;18.90;79.50
64062;DHT22;50308;47.438;-1.528;2022-10-30T15:32:41;18.90;80.00
64062;DHT22;50308;47.438;-1.528;2022-10-30T15:35:15;18.90;79.80
64062;DHT22;50308;47.438;-1.528;2022-10-30T15:38:00;18.90;79.80
64062;DHT22;50308;47.438;-1.528;2022-10-30T15:40:27;18.90;79.60
64062;DHT22;50308;47.438;-1.528;2022-10-30T15:42:54;18.90;79.60
64062;DHT22;50308;47.438;-1.528;2022-10-30T15:45:24;18.90;79.70
64062;DHT22;50308;47.438;-1.528;2022-10-30T15:47:56;18.90;79.60
64062;DHT22;50308;47.438;-1.528;2022-10-30T15:50:22;18.90;79.60
64062;DHT22;50308;47.438;-1.528;2022-10-30T15:52:48;18.90;79.60
64062;DHT22;50308;47.438;-1.528;2022-10-30T15:55:16;18.90;79.60
64062;DHT22;50308;47.438;-1.528;2022-10-30T15:57:44;18.90;79.60
64062;DHT22;50308;47.438;-1.528;2022-10-30T16:00:21;18.90;79.60
64062;DHT22;50308;47.438;-1.528;2022-10-30T16:02:47;18.90;79.60
64062;DHT22;50308;47.438;-1.528;2022-10-30T16:05:22;18.90;79.60
64062;DHT22;50308;47.438;-1.528;2022-10-30T16:07:48;18.90;79.30
64062;DHT22;50308;47.438;-1.528;2022-10-30T16:10:16;18.90;79.50
64062;DHT22;50308;47.438;-1.528;2022-10-30T16:12:42;18.90;79.50
64062;DHT22;50308;47.438;-1.528;2022-10-30T16:15:23;18.90;79.50
64062;DHT22;50308;47.438;-1.528;2022-10-30T16:18:03;18.90;79.40
64062;DHT22;50308;47.438;-1.528;2022-10-30T16:20:29;18.90;79.60
64062;DHT22;50308;47.438;-1.528;2022-10-30T16:22:54;18.90;79.90
64062;DHT22;50308;47.438;-1.528;2022-10-30T16:25:20;18.90;79.50
64062;DHT22;50308;47.438;-1.528;2022-10-30T16:27:46;18.90;79.10
64062;DHT22;50308;47.438;-1.528;2022-10-30T16:30:13;18.90;78.10
64062;DHT22;50308;47.438;-1.528;2022-10-30T16:32:39;18.90;77.90
64062;DHT22;50308;47.438;-1.528;2022-10-30T16:35:05;18.80;78.30
64062;DHT22;50308;47.438;-1.528;2022-10-30T16:37:35;18.80;77.80
64062;DHT22;50308;47.438;-1.528;2022-10-30T16:40:02;18.90;78.00
64062;DHT22;50308;47.438;-1.528;2022-10-30T16:42:31;18.80;78.00
64062;DHT22;50308;47.438;-1.528;2022-10-30T16:47:36;18.80;78.30
64062;DHT22;50308;47.438;-1.528;2022-10-30T16:50:03;18.80;78.10
64062;DHT22;50308;47.438;-1.528;2022-10-30T16:52:31;18.80;78.20
64062;DHT22;50308;47.438;-1.528;2022-10-30T16:55:04;18.80;78.10
64062;DHT22;50308;47.438;-1.528;2022-10-30T16:57:31;18.80;77.90
64062;DHT22;50308;47.438;-1.528;2022-10-30T16:59:58;18.70;78.20
64062;DHT22;50308;47.438;-1.528;2022-10-30T17:02:29;18.70;78.10
64062;DHT22;50308;47.438;-1.528;2022-10-30T17:07:55;18.70;78.20
64062;DHT22;50308;47.438;-1.528;2022-10-30T17:10:29;18.70;78.00
64062;DHT22;50308;47.438;-1.528;2022-10-30T17:13:38;18.60;77.80
64062;DHT22;50308;47.438;-1.528;2022-10-30T17:15:44;18.50;77.90
64062;DHT22;50308;47.438;-1.528;2022-10-30T17:18:14;18.50;78.20
64062;DHT22;50308;47.438;-1.528;2022-10-30T17:20:40;18.50;78.00
64062;DHT22;50308;47.438;-1.528;2022-10-30T17:23:13;18.40;78.00
64062;DHT22;50308;47.438;-1.528;2022-10-30T17:25:40;18.30;78.40
64062;DHT22;50308;47.438;-1.528;2022-10-30T17:28:06;18.20;78.40
64062;DHT22;50308;47.438;-1.528;2022-10-30T17:33:01;18.20;78.70
64062;DHT22;50308;47.438;-1.528;2022-10-30T17:35:27;18.20;78.70
64062;DHT22;50308;47.438;-1.528;2022-10-30T17:37:53;18.10;78.60
64062;DHT22;50308;47.438;-1.528;2022-10-30T17:40:18;18.10;78.70
64062;DHT22;50308;47.438;-1.528;2022-10-30T17:42:45;18.00;78.70
64062;DHT22;50308;47.438;-1.528;2022-10-30T17:45:14;18.00;78.80
64062;DHT22;50308;47.438;-1.528;2022-10-30T17:47:40;18.00;78.90
64062;DHT22;50308;47.438;-1.528;2022-10-30T17:50:06;18.00;78.90